Flight Track Log - Related Links

Times and Time Zones

All times are in EDT time to prevent confusion due to time zone crossing. See the USC105 flight status page for this flight to view local times or setup timezone preferences in your user account.

Time Position Orientation Groundspeed Altitude Reporting Facility
EDT Latitude Longitude Course Direction KTS MPH feet Rate Location/Type
Fri 06:00:57 AM 41.8333 -88.2167 185° South 143 165 2,600  Level Chicago TRACON
Fri 06:01:57 AM 41.8000 -88.2000 160° South 147 169 3,500 900 Climbing Chicago TRACON
Fri 06:02:57 AM 41.7667 -88.1667 143° Southeast 150 173 4,400 857 Climbing Chicago TRACON
Fri 06:04:03 AM 41.7333 -88.1333 143° Southeast 152 175 5,300 857 Climbing Chicago TRACON
Fri 06:05:00 AM 41.9449 -87.8250 153° Southeast  Level Estimated
Fri 06:05:03 AM 41.7000 -88.1000 143° Southeast 152 175 6,200  Level Chicago TRACON
Fri 06:05:57 AM 41.6667 -88.0667 143° Southeast 154 177 6,800 471 Climbing Chicago TRACON
Fri 06:06:00 AM 41.8922 -87.8306 185° South  Level FlightAware Approximate
Fri 06:06:45 AM 41.6500 -88.0167 114° Southeast 173 199 7,000  Level Chicago TRACON
Fri 06:07:46 AM 41.6500 -87.9500 90° East 182 209 7,000  Level Chicago TRACON
Fri 06:08:52 AM 41.6500 -87.8833 90° East 187 215 7,000  Level Chicago TRACON
Fri 06:09:52 AM 41.6333 -87.8167 108° East 186 214 7,000  Level Chicago TRACON
Fri 06:10:52 AM 41.6500 -87.7500 71° East 211 243 7,000  Level Chicago TRACON
Fri 06:11:52 AM 41.6667 -87.6833 71° East 181 208 7,000  Level Chicago TRACON
Fri 06:12:52 AM 41.6833 -87.6167 71° East 182 209 7,000  Level Chicago TRACON
Fri 06:13:52 AM 41.6833 -87.5500 90° East 182 209 7,000  Level Chicago TRACON
Fri 06:14:52 AM 41.7000 -87.4833 71° East 181 208 7,000  Level Chicago TRACON
Fri 06:16:16 AM 41.7103 -87.3883 82° East 181 208 7,000  Level Chicago Center
Fri 06:17:17 AM 41.7200 -87.3233 79° East 180 207 7,000  Level Chicago Center
Fri 06:18:17 AM 41.7300 -87.2567 79° East 182 209 7,000  Level Chicago Center
Fri 06:19:18 AM 41.7406 -87.1911 78° East 182 209 7,000  Level Chicago Center
Fri 06:20:19 AM 41.7506 -87.1244 79° East 183 211 7,000  Level Chicago Center
Fri 06:21:19 AM 41.7600 -87.0583 79° East 183 211 7,000  Level Chicago Center
Fri 06:22:20 AM 41.7714 -86.9894 77° East 187 215 7,000  Level Chicago Center
Fri 06:23:21 AM 41.7822 -86.9231 78° East 185 213 7,000  Level Chicago Center
Fri 06:24:21 AM 41.7911 -86.8558 80° East 185 213 7,000  Level Chicago Center
Fri 06:25:22 AM 41.8014 -86.7892 78° East 185 213 7,000  Level Chicago Center
Fri 06:26:23 AM 41.8117 -86.7225 78° East 185 213 7,000  Level Chicago Center
Fri 06:27:23 AM 41.8217 -86.6514 79° East 182 209 7,000  Level Chicago Center
Fri 06:28:24 AM 41.8319 -86.5831 79° East 185 213 7,000  Level Chicago Center
Fri 06:29:25 AM 41.8414 -86.5150 79° East 185 213 7,000  Level Chicago Center
Fri 06:30:25 AM 41.8517 -86.4483 78° East 184 212 7,000  Level Chicago Center
Fri 06:31:26 AM 41.8622 -86.3803 78° East 185 213 7,000  Level Chicago Center
Fri 06:32:27 AM 41.8722 -86.3128 79° East 185 213 7,000  Level Chicago Center
Fri 06:33:27 AM 41.8819 -86.2458 79° East 182 209 7,000  Level Chicago Center
Fri 06:34:28 AM 41.8917 -86.1767 79° East 187 215 7,000  Level Chicago Center
Fri 06:35:29 AM 41.9008 -86.1094 80° East 183 211 7,000  Level Chicago Center
Fri 06:36:29 AM 41.9128 -86.0300 79° East 181 208 7,000 50 Level Chicago Center
Fri 06:37:30 AM 41.9222 -85.9636 79° East 181 208 7,100 49 Climbing Chicago Center
Fri 06:38:31 AM 41.9314 -85.8961 80° East 183 211 7,100  Level Chicago Center
Fri 06:39:32 AM 41.9411 -85.8278 79° East 185 213 7,100  Level Chicago Center
Fri 06:40:32 AM 41.9511 -85.7608 79° East 185 213 7,100  Level Chicago Center
Fri 06:41:33 AM 41.9600 -85.6925 80° East 184 212 7,100  Level Chicago Center
Fri 06:42:34 AM 41.9697 -85.6233 79° East 188 216 7,100  Level Chicago Center
Fri 06:43:34 AM 41.9797 -85.5542 79° East 189 217 7,100  Level Chicago Center
Fri 06:44:35 AM 41.9894 -85.4839 79° East 189 217 7,100  Level Chicago Center
Fri 06:45:36 AM 41.9992 -85.4147 79° East 189 217 7,100  Level Chicago Center
Fri 06:46:36 AM 42.0083 -85.3456 80° East 188 216 7,100  Level Chicago Center
Fri 06:47:37 AM 42.0181 -85.2764 79° East 188 216 7,100  Level Chicago Center
Fri 06:48:38 AM 42.0275 -85.2067 80° East 188 216 7,100  Level Chicago Center
Fri 06:49:38 AM 42.0372 -85.1378 79° East 188 216 7,100  Level Chicago Center
Fri 06:50:39 AM 42.0461 -85.0683 80° East 188 216 7,100  Level Chicago Center
Fri 06:51:40 AM 42.0558 -84.9992 79° East 188 216 7,100  Level Chicago Center
Fri 06:52:41 AM 42.0647 -84.9308 80° East 187 215 7,100  Level Chicago Center
Fri 06:53:41 AM 42.0733 -84.8606 81° East 188 216 7,100  Level Chicago Center
Fri 06:54:42 AM 42.0828 -84.7900 80° East 190 219 7,100  Level Chicago Center
Fri 06:55:43 AM 42.0925 -84.7217 79° East 188 216 7,100  Level Chicago Center
Fri 06:56:44 AM 42.1011 -84.6503 81° East 191 220 7,100  Level Chicago Center
Fri 06:57:45 AM 42.1097 -84.5808 80° East 190 219 7,100  Level Chicago Center
Fri 06:58:45 AM 42.1197 -84.5069 80° East 191 220 7,100  Level Chicago Center
Fri 06:59:46 AM 42.1283 -84.4381 80° East 189 217 7,100  Level Chicago Center
Fri 07:00:46 AM 42.1372 -84.3681 80° East 190 219 7,100  Level Chicago Center
Fri 07:01:35 AM 42.1456 -84.3025 80° East 190 219 7,100  Level Cleveland Center
Fri 07:02:36 AM 42.1542 -84.2303 81° East 190 219 7,100  Level Cleveland Center
Fri 07:03:37 AM 42.1647 -84.1608 78° East 188 216 7,100 -90 Level Cleveland Center
Fri 07:04:50 AM 42.1736 -84.0800 82° East 187 215 6,900 -269 Descending Cleveland Center
Fri 07:05:51 AM 42.1822 -84.0019 82° East 195 224 6,500 -328 Descending Cleveland Center
Fri 07:06:58 AM 42.1928 -83.9239 80° East 192 221 6,200 -639 Descending Cleveland Center
Fri 07:07:53 AM 42.1611 -83.8664 127° Southeast 207 238 5,200 -1,033 Descending Cleveland Center
Fri 07:09:00 AM 42.1211 -83.8056 132° Southeast 194 223 4,100 -938 Descending Cleveland Center
Fri 07:10:01 AM 42.1061 -83.7486 110° East 179 206 3,200 -492 Descending Cleveland Center
Fri 07:11:02 AM 42.1303 -83.6967 58° Northeast 158 182 3,100 -94 Descending Cleveland Center
Fri 07:12:08 AM 42.1589 -83.6447 53° Northeast 149 171 3,000 -495 Descending Cleveland Center
Fri 07:12:51 AM 42.1825 -83.6153 43° Northeast 153 176 2,200 -865 Descending Cleveland Center
Fri 07:13:52 AM 42.2108 -83.5744 47° Northeast 158 182 1,500 -689 Descending Cleveland Center

Login

Don't have an account? Register now (free) for customized features, flight alerts, and more!